createdAt,value
2022-12-08T00:20:03.351Z,9.00
2022-12-08T00:50:06.882Z,12.97
2022-12-08T01:20:10.980Z,9.47
2022-12-08T01:50:14.320Z,15.43
2022-12-08T02:20:17.254Z,13.57
2022-12-08T02:50:20.711Z,12.63
2022-12-08T03:20:24.576Z,17.10
2022-12-08T03:50:27.955Z,14.93
2022-12-08T04:20:31.558Z,15.37
2022-12-08T04:50:34.780Z,20.65
2022-12-08T05:20:38.098Z,33.60
2022-12-08T05:50:41.652Z,24.80
2022-12-08T06:20:45.072Z,22.17
2022-12-08T06:50:48.254Z,20.87
2022-12-08T07:20:51.993Z,18.43
2022-12-08T07:50:55.374Z,21.00
2022-12-08T08:21:06.733Z,31.30
2022-12-08T08:51:21.557Z,27.43
2022-12-08T09:21:24.547Z,26.60
2022-12-08T09:51:27.999Z,17.95
2022-12-08T10:21:31.681Z,20.30
2022-12-08T10:51:34.799Z,24.77
2022-12-08T11:21:38.826Z,20.57
2022-12-08T11:51:42.050Z,24.10
2022-12-08T12:21:44.961Z,24.80
2022-12-08T12:51:48.352Z,26.37
2022-12-08T13:21:51.236Z,21.30
2022-12-08T14:22:18.431Z,40.73
2022-12-08T14:52:21.343Z,36.83
2022-12-08T15:22:24.445Z,33.67
2022-12-08T15:52:27.426Z,35.50
2022-12-08T16:52:54.798Z,35.43
2022-12-08T17:22:57.743Z,34.10
2022-12-08T17:53:01.057Z,37.17
2022-12-08T18:23:04.244Z,41.73
2022-12-08T18:53:07.670Z,37.13
2022-12-08T19:23:12.035Z,27.20
2022-12-08T19:53:15.623Z,29.57
2022-12-08T20:23:19.085Z,26.00
2022-12-08T20:53:22.514Z,15.17
2022-12-08T21:23:25.815Z,9.40
2022-12-08T21:53:29.070Z,12.63
2022-12-08T22:23:32.668Z,15.20
2022-12-08T22:53:35.499Z,16.97
2022-12-08T23:23:39.720Z,20.40
2022-12-08T23:53:43.599Z,21.30
